createdAt,value
2022-12-08T00:01:35.628Z,64.89
2022-12-08T00:04:05.251Z,65.18
2022-12-08T00:06:52.508Z,65.14
2022-12-08T00:09:23.038Z,65.51
2022-12-08T00:11:56.819Z,65.24
2022-12-08T00:14:28.638Z,65.33
2022-12-08T00:16:57.669Z,65.70
2022-12-08T00:19:26.124Z,65.69
2022-12-08T00:21:54.828Z,65.73
2022-12-08T00:24:23.955Z,65.92
2022-12-08T00:26:51.984Z,65.62
2022-12-08T00:29:20.715Z,65.64
2022-12-08T00:31:50.182Z,65.70
2022-12-08T00:34:18.371Z,65.98
2022-12-08T00:36:46.421Z,66.11
2022-12-08T00:39:15.759Z,66.20
2022-12-08T00:41:57.760Z,66.04
2022-12-08T00:44:26.343Z,65.74
2022-12-08T00:46:55.755Z,65.79
2022-12-08T00:49:23.960Z,65.55
2022-12-08T00:51:52.021Z,65.46
2022-12-08T00:54:20.536Z,65.57
2022-12-08T00:56:49.185Z,65.21
2022-12-08T00:59:17.339Z,65.05
2022-12-08T01:01:46.280Z,65.24
2022-12-08T01:04:17.764Z,65.25
2022-12-08T01:06:46.325Z,65.11
2022-12-08T01:09:16.663Z,65.20
2022-12-08T01:11:45.573Z,65.01
2022-12-08T01:14:14.090Z,65.16
2022-12-08T01:16:42.510Z,65.14
2022-12-08T01:19:12.214Z,65.24
2022-12-08T01:21:42.703Z,65.14
2022-12-08T01:24:13.134Z,65.37
2022-12-08T01:26:41.208Z,65.33
2022-12-08T01:29:09.852Z,65.53
2022-12-08T01:31:37.851Z,65.30
2022-12-08T01:34:06.335Z,65.48
2022-12-08T01:36:37.144Z,65.66
2022-12-08T01:39:09.565Z,65.67
2022-12-08T01:41:40.310Z,65.79
2022-12-08T01:44:41.676Z,65.84
2022-12-08T01:47:10.364Z,66.26
2022-12-08T01:49:38.661Z,66.08
2022-12-08T01:52:12.166Z,65.58
2022-12-08T01:54:48.313Z,65.48
2022-12-08T01:57:19.848Z,65.54
2022-12-08T02:00:02.245Z,65.04
2022-12-08T02:02:41.114Z,65.30
2022-12-08T02:05:10.693Z,65.14
2022-12-08T02:07:39.166Z,64.87
2022-12-08T02:10:09.905Z,65.01
2022-12-08T02:12:37.953Z,64.88
2022-12-08T02:15:07.172Z,64.75
2022-12-08T02:17:50.320Z,64.15
2022-12-08T02:20:45.763Z,64.27
2022-12-08T02:23:23.603Z,64.70
2022-12-08T02:26:17.361Z,64.50
2022-12-08T02:29:10.493Z,65.07
2022-12-08T02:31:50.457Z,65.24
2022-12-08T02:34:28.753Z,65.36
2022-12-08T02:37:04.975Z,65.27
2022-12-08T02:39:39.499Z,65.17
2022-12-08T02:42:13.576Z,65.32
2022-12-08T02:44:44.645Z,65.27
2022-12-08T02:47:17.127Z,65.27
2022-12-08T02:49:47.101Z,65.34
2022-12-08T02:52:40.819Z,65.10
2022-12-08T02:55:14.394Z,65.60
2022-12-08T02:57:53.430Z,65.56
2022-12-08T03:00:23.220Z,65.75
2022-12-08T03:03:06.727Z,65.59
2022-12-08T03:05:58.943Z,65.43
2022-12-08T03:08:34.401Z,65.43
2022-12-08T03:11:07.765Z,65.27
2022-12-08T03:13:41.386Z,65.53
2022-12-08T03:16:13.062Z,65.70
2022-12-08T03:18:45.388Z,65.60
2022-12-08T03:21:17.021Z,65.61
2022-12-08T03:23:47.144Z,65.86
2022-12-08T03:26:26.220Z,65.50
2022-12-08T03:28:54.477Z,66.23
2022-12-08T03:31:26.090Z,66.16
2022-12-08T03:33:57.833Z,66.27
2022-12-08T03:36:27.354Z,66.24
2022-12-08T03:38:55.668Z,66.59
2022-12-08T03:41:24.188Z,66.46
2022-12-08T03:43:55.411Z,66.45
2022-12-08T03:48:53.904Z,66.05
2022-12-08T03:51:22.446Z,65.97
2022-12-08T03:53:52.208Z,65.87
2022-12-08T03:56:24.800Z,66.07
2022-12-08T03:58:53.178Z,65.16
2022-12-08T04:01:21.630Z,64.92
2022-12-08T04:03:50.119Z,65.14
2022-12-08T04:06:18.900Z,64.91
2022-12-08T04:08:47.253Z,65.14
2022-12-08T04:11:16.784Z,65.05
2022-12-08T04:13:45.061Z,65.11
2022-12-08T04:16:17.344Z,65.11
2022-12-08T04:18:45.921Z,64.97
2022-12-08T04:21:14.005Z,65.32
2022-12-08T04:23:42.374Z,65.46
2022-12-08T04:26:10.835Z,65.50
2022-12-08T04:28:40.312Z,65.64
2022-12-08T04:31:08.676Z,65.86
2022-12-08T04:33:36.900Z,65.69
2022-12-08T04:36:06.224Z,65.82
2022-12-08T04:38:34.673Z,66.07
2022-12-08T04:41:03.011Z,66.02
2022-12-08T04:43:31.252Z,66.10
2022-12-08T04:46:00.664Z,66.07
2022-12-08T04:48:28.776Z,66.45
2022-12-08T04:50:56.816Z,66.39
2022-12-08T04:53:26.701Z,66.42
2022-12-08T04:55:54.742Z,66.34
2022-12-08T04:58:23.083Z,66.18
2022-12-08T05:00:51.499Z,66.01
2022-12-08T05:03:28.108Z,66.24
2022-12-08T05:05:56.698Z,66.26
2022-12-08T05:08:24.730Z,66.16
2022-12-08T05:10:52.863Z,66.30
2022-12-08T05:13:20.968Z,66.31
2022-12-08T05:15:49.087Z,66.30
2022-12-08T05:18:17.246Z,66.53
2022-12-08T05:20:46.695Z,66.54
2022-12-08T05:23:14.773Z,66.49
2022-12-08T05:25:42.862Z,66.52
2022-12-08T05:28:39.569Z,66.27
2022-12-08T05:30:59.110Z,66.40
2022-12-08T05:33:27.232Z,66.72
2022-12-08T05:35:56.684Z,66.32
2022-12-08T05:38:24.745Z,66.62
2022-12-08T05:40:52.790Z,66.34
2022-12-08T05:43:20.814Z,66.22
2022-12-08T05:45:49.003Z,66.58
2022-12-08T05:48:17.175Z,66.55
2022-12-08T05:50:47.977Z,66.27
2022-12-08T05:53:18.362Z,66.04
2022-12-08T05:55:46.823Z,66.17
2022-12-08T05:58:16.776Z,66.37
2022-12-08T06:00:45.809Z,66.42
2022-12-08T06:03:14.261Z,66.52
2022-12-08T06:05:43.376Z,66.48
2022-12-08T06:08:11.738Z,66.36
2022-12-08T06:10:42.125Z,66.58
2022-12-08T06:13:10.565Z,66.34
2022-12-08T06:15:39.594Z,66.09
2022-12-08T06:18:08.077Z,66.20
2022-12-08T06:20:36.191Z,66.29
2022-12-08T06:23:04.375Z,66.25
2022-12-08T06:25:32.445Z,66.14
2022-12-08T06:28:01.964Z,65.99
2022-12-08T06:30:29.997Z,65.91
2022-12-08T06:32:58.030Z,66.52
2022-12-08T06:35:26.105Z,66.11
2022-12-08T06:37:54.158Z,66.22
2022-12-08T06:40:22.208Z,66.08
2022-12-08T06:42:50.222Z,66.18
2022-12-08T06:45:19.858Z,66.17
2022-12-08T06:47:47.921Z,66.40
2022-12-08T06:50:16.093Z,66.24
2022-12-08T06:52:56.905Z,66.31
2022-12-08T06:58:17.705Z,66.55
2022-12-08T07:00:47.283Z,66.43
2022-12-08T07:03:15.393Z,66.43
2022-12-08T07:05:43.429Z,66.20
2022-12-08T07:08:11.560Z,65.99
2022-12-08T07:10:39.759Z,65.86
2022-12-08T07:13:07.781Z,65.92
2022-12-08T07:15:35.792Z,65.82
2022-12-08T07:18:05.201Z,65.72
2022-12-08T07:20:33.262Z,65.47
2022-12-08T07:23:01.275Z,65.53
2022-12-08T07:25:29.327Z,65.48
2022-12-08T07:27:57.392Z,65.61
2022-12-08T07:30:25.540Z,65.66
2022-12-08T07:32:53.597Z,65.56
2022-12-08T07:35:23.209Z,65.21
2022-12-08T07:37:51.370Z,65.27
2022-12-08T07:40:19.701Z,65.14
2022-12-08T07:42:47.661Z,65.39
2022-12-08T07:45:15.809Z,65.47
2022-12-08T07:47:43.875Z,65.40
2022-12-08T07:50:12.175Z,65.38
2022-12-08T07:52:41.598Z,65.24
2022-12-08T07:55:10.686Z,65.43
2022-12-08T07:57:38.745Z,65.47
2022-12-08T08:00:08.337Z,65.53
2022-12-08T08:02:45.409Z,65.43
2022-12-08T08:05:13.974Z,65.20
2022-12-08T08:07:44.561Z,65.75
2022-12-08T08:10:13.119Z,65.82
2022-12-08T08:12:41.424Z,65.72
2022-12-08T08:15:10.561Z,65.91
2022-12-08T08:17:39.259Z,65.79
2022-12-08T08:20:09.357Z,65.69
2022-12-08T08:22:38.656Z,65.95
2022-12-08T08:25:08.954Z,66.21
2022-12-08T08:27:37.061Z,66.48
2022-12-08T08:30:05.867Z,65.98
2022-12-08T08:32:34.922Z,66.07
2022-12-08T08:35:03.339Z,66.05
2022-12-08T08:37:31.498Z,65.91
2022-12-08T08:39:59.569Z,65.91
2022-12-08T08:42:29.200Z,65.94
2022-12-08T08:44:58.320Z,65.95
2022-12-08T08:47:26.330Z,65.81
2022-12-08T08:49:54.386Z,65.95
2022-12-08T08:52:26.514Z,65.89
2022-12-08T08:54:54.616Z,66.04
2022-12-08T08:57:25.772Z,66.14
2022-12-08T08:59:57.220Z,66.13
2022-12-08T09:02:25.559Z,66.33
2022-12-08T09:04:53.916Z,66.46
2022-12-08T09:07:22.030Z,66.85
2022-12-08T09:09:50.825Z,66.92
2022-12-08T09:12:19.235Z,66.65
2022-12-08T09:14:47.266Z,66.33
2022-12-08T09:17:17.779Z,66.67
2022-12-08T09:19:46.015Z,66.85
2022-12-08T09:22:16.547Z,67.77
2022-12-08T09:24:44.662Z,67.38
2022-12-08T09:27:12.745Z,67.00
2022-12-08T09:29:40.872Z,66.81
2022-12-08T09:32:08.892Z,67.03
2022-12-08T09:34:38.260Z,66.97
2022-12-08T09:37:06.307Z,67.01
2022-12-08T09:39:34.305Z,67.19
2022-12-08T09:42:03.683Z,66.75
2022-12-08T09:44:49.742Z,66.21
2022-12-08T09:47:22.517Z,65.81
2022-12-08T09:49:57.646Z,66.91
2022-12-08T09:52:30.698Z,70.26
2022-12-08T09:55:01.539Z,68.91
2022-12-08T09:57:30.866Z,66.38
2022-12-08T10:00:04.010Z,63.99
2022-12-08T10:02:33.607Z,62.89
2022-12-08T10:05:03.346Z,60.79
2022-12-08T10:07:42.963Z,56.80
2022-12-08T10:10:23.005Z,57.71
2022-12-08T10:12:59.551Z,54.01
2022-12-08T10:15:42.241Z,52.21
2022-12-08T10:18:16.375Z,50.17
2022-12-08T10:20:48.768Z,52.30
2022-12-08T10:23:26.818Z,49.27
2022-12-08T10:26:01.640Z,50.14
2022-12-08T10:28:29.772Z,50.11
2022-12-08T10:30:57.899Z,48.48
2022-12-08T10:33:26.146Z,47.03
2022-12-08T10:35:58.437Z,44.52
2022-12-08T10:38:30.736Z,45.45
2022-12-08T10:41:04.417Z,46.99
2022-12-08T10:43:33.934Z,47.93
2022-12-08T10:46:14.080Z,47.63
2022-12-08T10:48:51.546Z,48.31
2022-12-08T10:51:28.136Z,49.47
2022-12-08T10:53:56.503Z,50.67
2022-12-08T10:56:28.559Z,51.92
2022-12-08T10:59:14.424Z,53.07
2022-12-08T11:01:44.068Z,53.97
2022-12-08T11:04:16.648Z,54.84
2022-12-08T11:06:46.869Z,55.33
2022-12-08T11:09:41.195Z,56.18
2022-12-08T11:12:13.811Z,57.35
2022-12-08T11:14:50.394Z,57.02
2022-12-08T11:17:25.513Z,56.54
2022-12-08T11:19:58.922Z,56.03
2022-12-08T11:22:32.718Z,56.36
2022-12-08T11:25:04.013Z,57.62
2022-12-08T11:27:35.032Z,58.36
2022-12-08T11:30:07.212Z,58.13
2022-12-08T11:32:40.509Z,56.78
2022-12-08T11:35:11.328Z,54.51
2022-12-08T11:37:42.419Z,52.82
2022-12-08T11:40:17.553Z,50.02
2022-12-08T11:42:55.304Z,49.07
2022-12-08T11:45:27.811Z,48.35
2022-12-08T11:48:05.025Z,46.96
2022-12-08T11:50:41.193Z,46.11
2022-12-08T11:53:18.087Z,44.83
2022-12-08T11:55:51.531Z,45.43
2022-12-08T11:58:22.919Z,43.67
2022-12-08T12:00:51.395Z,42.69
2022-12-08T12:03:29.725Z,43.61
2022-12-08T12:09:17.586Z,42.26
2022-12-08T12:12:16.722Z,42.20
2022-12-08T12:15:23.264Z,43.67
2022-12-08T12:17:55.166Z,45.06
2022-12-08T12:20:28.612Z,47.79
2022-12-08T12:23:03.605Z,48.24
2022-12-08T12:25:34.641Z,47.41
2022-12-08T12:28:06.797Z,45.81
2022-12-08T12:30:53.555Z,43.77
2022-12-08T12:33:22.263Z,43.42
2022-12-08T12:35:50.775Z,44.51
2022-12-08T12:38:41.620Z,45.62
2022-12-08T12:41:14.354Z,47.42
2022-12-08T12:44:11.385Z,46.96
2022-12-08T12:46:54.465Z,45.15
2022-12-08T12:50:08.497Z,43.74
2022-12-08T12:52:44.213Z,43.17
2022-12-08T12:55:30.792Z,41.24
2022-12-08T12:58:00.351Z,41.61
2022-12-08T13:00:29.853Z,41.29
2022-12-08T13:02:59.371Z,41.43
2022-12-08T13:05:30.027Z,40.42
2022-12-08T13:08:01.171Z,39.94
2022-12-08T13:10:31.967Z,39.65
2022-12-08T13:13:06.632Z,38.94
2022-12-08T13:15:38.945Z,39.15
2022-12-08T13:18:08.343Z,39.79
2022-12-08T13:20:46.656Z,39.95
2022-12-08T13:23:28.247Z,40.34
2022-12-08T13:26:18.425Z,39.55
2022-12-08T13:29:15.062Z,40.51
2022-12-08T13:31:50.622Z,40.89
2022-12-08T13:34:22.958Z,40.46
2022-12-08T13:36:58.287Z,40.30
2022-12-08T13:39:30.573Z,40.86
2022-12-08T13:42:03.554Z,41.23
2022-12-08T13:45:18.740Z,41.52
2022-12-08T13:47:34.734Z,41.62
2022-12-08T13:58:40.035Z,40.93
2022-12-08T14:01:14.874Z,41.17
2022-12-08T14:04:20.457Z,42.03
2022-12-08T14:06:42.926Z,43.74
2022-12-08T14:09:16.005Z,44.85
2022-12-08T14:11:47.905Z,46.31
2022-12-08T14:14:32.806Z,47.12
2022-12-08T14:17:11.089Z,47.20
2022-12-08T14:19:41.098Z,47.77
2022-12-08T14:22:13.702Z,48.04
2022-12-08T14:24:46.062Z,48.57
2022-12-08T14:27:18.449Z,49.02
2022-12-08T14:29:48.535Z,49.69
2022-12-08T14:32:39.990Z,49.84
2022-12-08T14:35:21.085Z,50.75
2022-12-08T14:37:50.993Z,51.15
2022-12-08T14:40:23.874Z,51.71
2022-12-08T14:42:55.370Z,51.96
2022-12-08T14:45:23.435Z,51.85
2022-12-08T14:47:52.310Z,52.04
2022-12-08T14:50:42.896Z,51.97
2022-12-08T14:53:16.205Z,52.32
2022-12-08T14:55:46.289Z,52.27
2022-12-08T14:58:20.201Z,52.36
2022-12-08T15:00:51.494Z,52.98
2022-12-08T15:03:22.740Z,53.44
2022-12-08T15:05:54.206Z,53.33
2022-12-08T15:08:22.373Z,53.19
2022-12-08T15:11:18.877Z,52.70
2022-12-08T15:13:48.409Z,53.28
2022-12-08T15:16:26.525Z,53.87
2022-12-08T15:19:05.323Z,53.86
2022-12-08T15:21:39.205Z,54.07
2022-12-08T15:24:07.699Z,53.91
2022-12-08T15:26:40.615Z,53.72
2022-12-08T15:29:13.309Z,53.50
2022-12-08T15:31:41.452Z,53.47
2022-12-08T15:34:09.634Z,53.53
2022-12-08T15:36:40.048Z,53.56
2022-12-08T15:39:20.441Z,53.49
2022-12-08T15:41:48.453Z,53.65
2022-12-08T15:44:16.508Z,53.71
2022-12-08T15:46:44.615Z,53.81
2022-12-08T15:49:17.813Z,53.88
2022-12-08T15:51:47.981Z,54.13
2022-12-08T15:54:16.488Z,54.30
2022-12-08T15:57:10.840Z,54.47
2022-12-08T15:59:35.722Z,54.69
2022-12-08T16:02:03.902Z,55.05
2022-12-08T16:07:25.291Z,55.52
2022-12-08T16:09:53.895Z,55.78
2022-12-08T16:13:40.324Z,55.83
2022-12-08T16:18:24.755Z,55.56
2022-12-08T16:21:22.681Z,55.57
2022-12-08T16:23:45.655Z,55.65
2022-12-08T16:26:26.113Z,55.67
2022-12-08T16:29:05.143Z,55.70
2022-12-08T16:31:33.668Z,55.74
2022-12-08T16:34:01.868Z,55.81
2022-12-08T16:36:30.076Z,55.90
2022-12-08T16:38:59.482Z,56.11
2022-12-08T16:41:44.638Z,56.15
2022-12-08T16:44:12.789Z,56.22
2022-12-08T16:46:40.914Z,56.21
2022-12-08T16:49:10.256Z,56.27
2022-12-08T16:51:38.764Z,56.29
2022-12-08T16:54:08.148Z,56.36
2022-12-08T16:56:36.226Z,56.42
2022-12-08T16:59:04.414Z,56.60
2022-12-08T17:01:32.640Z,56.72
2022-12-08T17:04:30.050Z,56.79
2022-12-08T17:06:50.904Z,56.90
2022-12-08T17:09:20.551Z,57.04
2022-12-08T17:11:48.557Z,57.09
2022-12-08T17:14:17.482Z,57.23
2022-12-08T17:16:46.481Z,57.31
2022-12-08T17:19:15.987Z,57.27
2022-12-08T17:21:44.536Z,57.22
2022-12-08T17:24:15.865Z,57.16
2022-12-08T17:26:48.340Z,57.13
2022-12-08T17:29:18.669Z,57.10
2022-12-08T17:31:47.110Z,57.10
2022-12-08T17:34:15.298Z,57.26
2022-12-08T17:36:43.415Z,57.27
2022-12-08T17:39:18.257Z,57.39
2022-12-08T17:41:48.621Z,57.37
2022-12-08T17:44:18.849Z,57.37
2022-12-08T17:46:52.526Z,57.35
2022-12-08T17:49:23.472Z,57.46
2022-12-08T17:51:52.892Z,57.50
2022-12-08T17:54:21.256Z,57.96
2022-12-08T17:56:50.654Z,57.94
2022-12-08T17:59:19.070Z,57.90
2022-12-08T18:01:47.491Z,57.96
2022-12-08T18:04:15.631Z,58.39
2022-12-08T18:06:43.757Z,58.18
2022-12-08T18:09:12.074Z,58.06
2022-12-08T18:11:40.312Z,58.12
2022-12-08T18:14:10.707Z,58.06
2022-12-08T18:16:40.715Z,58.15
2022-12-08T18:19:09.910Z,58.32
2022-12-08T18:21:38.097Z,58.97
2022-12-08T18:24:07.049Z,59.24
2022-12-08T18:26:35.233Z,59.24
2022-12-08T18:29:03.414Z,59.55
2022-12-08T18:31:32.859Z,59.31
2022-12-08T18:34:00.945Z,59.19
2022-12-08T18:36:28.958Z,59.08
2022-12-08T18:38:57.094Z,59.12
2022-12-08T18:41:26.817Z,59.04
2022-12-08T18:43:55.650Z,59.01
2022-12-08T18:46:24.456Z,58.95
2022-12-08T18:48:54.335Z,59.02
2022-12-08T18:51:24.864Z,59.16
2022-12-08T18:53:53.634Z,59.09
2022-12-08T18:56:24.224Z,59.33
2022-12-08T18:58:57.290Z,59.38
2022-12-08T19:01:28.568Z,59.23
2022-12-08T19:04:26.878Z,59.19
2022-12-08T19:06:47.207Z,59.30
2022-12-08T19:09:15.884Z,59.40
2022-12-08T19:11:44.383Z,59.44
2022-12-08T19:14:13.932Z,59.42
2022-12-08T19:16:42.012Z,59.56
2022-12-08T19:19:11.529Z,59.67
2022-12-08T19:21:44.719Z,59.72
2022-12-08T19:24:14.336Z,59.92
2022-12-08T19:26:42.784Z,59.96
2022-12-08T19:29:11.206Z,60.04
2022-12-08T19:31:39.505Z,60.16
2022-12-08T19:34:09.188Z,60.09
2022-12-08T19:36:42.717Z,60.05
2022-12-08T19:39:33.549Z,59.96
2022-12-08T19:42:18.880Z,60.21
2022-12-08T19:44:56.048Z,60.18
2022-12-08T19:47:25.790Z,60.46
2022-12-08T19:49:54.855Z,60.79
2022-12-08T19:52:24.306Z,60.60
2022-12-08T19:54:52.362Z,60.54
2022-12-08T19:57:20.483Z,60.50
2022-12-08T19:59:54.611Z,60.44
2022-12-08T20:02:24.527Z,60.49
2022-12-08T20:04:52.819Z,60.45
2022-12-08T20:07:20.880Z,60.39
2022-12-08T20:09:50.333Z,60.39
2022-12-08T20:12:18.346Z,60.33
2022-12-08T20:14:46.580Z,60.35
2022-12-08T20:17:14.784Z,60.56
2022-12-08T20:19:42.880Z,60.50
2022-12-08T20:22:10.993Z,60.54
2022-12-08T20:24:39.202Z,60.76
2022-12-08T20:27:08.809Z,60.68
2022-12-08T20:29:37.130Z,60.69
2022-12-08T20:32:05.379Z,60.66
2022-12-08T20:34:34.571Z,60.67
2022-12-08T20:37:02.636Z,61.20
2022-12-08T20:39:30.824Z,61.16
2022-12-08T20:42:00.134Z,61.37
2022-12-08T20:44:30.279Z,61.70
2022-12-08T20:46:58.451Z,61.99
2022-12-08T20:49:32.774Z,62.35
2022-12-08T20:52:02.587Z,62.11
2022-12-08T20:54:30.845Z,62.30
2022-12-08T20:56:59.050Z,62.03
2022-12-08T20:59:27.474Z,61.85
2022-12-08T21:01:57.238Z,61.89
2022-12-08T21:04:25.856Z,62.02
2022-12-08T21:06:53.995Z,62.60
2022-12-08T21:09:22.428Z,62.34
2022-12-08T21:11:50.666Z,62.30
2022-12-08T21:14:18.910Z,62.09
2022-12-08T21:16:47.219Z,61.99
2022-12-08T21:19:18.252Z,61.96
2022-12-08T21:21:47.036Z,61.97
2022-12-08T21:24:15.795Z,62.18
2022-12-08T21:26:44.538Z,62.85
2022-12-08T21:29:13.393Z,62.98
2022-12-08T21:31:41.950Z,62.86
2022-12-08T21:34:12.178Z,62.57
2022-12-08T21:36:42.108Z,62.26
2022-12-08T21:39:12.836Z,62.18
2022-12-08T21:41:58.352Z,62.22
2022-12-08T21:44:26.504Z,62.15
2022-12-08T21:46:55.134Z,62.08
2022-12-08T21:49:23.250Z,62.24
2022-12-08T21:51:52.837Z,62.24
2022-12-08T21:54:20.927Z,62.15
2022-12-08T21:56:50.419Z,61.99
2022-12-08T21:59:19.775Z,61.93
2022-12-08T22:01:48.479Z,61.87
2022-12-08T22:04:19.009Z,61.89
2022-12-08T22:06:47.164Z,61.87
2022-12-08T22:09:16.927Z,61.87
2022-12-08T22:11:45.281Z,61.92
2022-12-08T22:14:15.085Z,61.96
2022-12-08T22:16:44.068Z,61.90
2022-12-08T22:19:13.192Z,61.97
2022-12-08T22:21:41.543Z,61.96
2022-12-08T22:24:09.932Z,62.03
2022-12-08T22:26:39.348Z,61.96
2022-12-08T22:29:07.379Z,61.89
2022-12-08T22:31:35.492Z,62.24
2022-12-08T22:34:03.824Z,62.63
2022-12-08T22:36:31.891Z,62.92
2022-12-08T22:39:00.069Z,63.22
2022-12-08T22:41:28.457Z,63.17
2022-12-08T22:43:57.871Z,63.19
2022-12-08T22:46:27.495Z,63.29
2022-12-08T22:48:55.907Z,63.50
2022-12-08T22:51:23.930Z,63.88
2022-12-08T22:53:52.034Z,64.57
2022-12-08T22:56:20.751Z,64.52
2022-12-08T22:58:49.341Z,64.36
2022-12-08T23:01:27.237Z,64.14
2022-12-08T23:03:55.757Z,64.18
2022-12-08T23:06:24.035Z,64.19
2022-12-08T23:08:52.431Z,64.16
2022-12-08T23:11:22.077Z,64.03
2022-12-08T23:13:50.288Z,63.90
2022-12-08T23:16:18.580Z,64.01
2022-12-08T23:18:48.541Z,64.29
2022-12-08T23:21:19.568Z,64.39
2022-12-08T23:23:48.268Z,64.16
2022-12-08T23:26:19.009Z,64.23
2022-12-08T23:28:47.440Z,64.21
2022-12-08T23:31:16.475Z,64.71
2022-12-08T23:33:45.267Z,64.53
2022-12-08T23:36:16.063Z,64.59
2022-12-08T23:38:44.526Z,64.42
2022-12-08T23:41:14.285Z,64.24
2022-12-08T23:43:46.268Z,64.11
2022-12-08T23:46:15.207Z,64.23
2022-12-08T23:48:43.766Z,64.13
2022-12-08T23:51:12.276Z,64.01
2022-12-08T23:53:42.259Z,63.92
2022-12-08T23:56:12.781Z,63.72
2022-12-08T23:58:41.674Z,63.52
